createdAt,value
2018-09-28T00:00:46.620Z,1008.24
2018-09-28T00:01:46.592Z,1008.28
2018-09-28T00:02:46.594Z,1008.28
2018-09-28T00:03:46.593Z,1008.28
2018-09-28T00:04:46.561Z,1008.26
2018-09-28T00:05:46.549Z,1008.31
2018-09-28T00:06:46.539Z,1008.32
2018-09-28T00:07:46.578Z,1008.35
2018-09-28T00:08:46.521Z,1008.37
2018-09-28T00:09:46.535Z,1008.35
2018-09-28T00:10:46.498Z,1008.26
2018-09-28T00:11:46.490Z,1008.28
2018-09-28T00:12:46.477Z,1008.34
2018-09-28T00:13:46.465Z,1008.38
2018-09-28T00:14:46.456Z,1008.42
2018-09-28T00:15:46.478Z,1008.39
2018-09-28T00:16:46.431Z,1008.42
2018-09-28T00:17:46.420Z,1008.38
2018-09-28T00:18:46.411Z,1008.42
2018-09-28T00:19:46.397Z,1008.45
2018-09-28T00:20:46.389Z,1008.44
2018-09-28T00:21:46.391Z,1008.45
2018-09-28T00:22:46.378Z,1008.45
2018-09-28T00:23:46.357Z,1008.43
2018-09-28T00:24:46.345Z,1008.45
2018-09-28T00:25:46.377Z,1008.43
2018-09-28T00:26:46.338Z,1008.42
2018-09-28T00:27:46.313Z,1008.39
2018-09-28T00:28:46.302Z,1008.42
2018-09-28T00:29:46.290Z,1008.49
2018-09-28T00:30:46.281Z,1008.46
2018-09-28T00:31:46.294Z,1008.40
2018-09-28T00:32:46.257Z,1008.36
2018-09-28T00:33:46.249Z,1008.34
2018-09-28T00:34:46.239Z,1008.33
2018-09-28T00:35:46.265Z,1008.33
2018-09-28T00:36:46.214Z,1008.33
2018-09-28T00:37:46.231Z,1008.29
2018-09-28T00:38:46.193Z,1008.28
2018-09-28T00:39:46.182Z,1008.32
2018-09-28T00:40:46.171Z,1008.33
2018-09-28T00:41:46.162Z,1008.35
2018-09-28T00:42:46.172Z,1008.33
2018-09-28T00:43:46.158Z,1008.35
2018-09-28T00:44:46.131Z,1008.45
2018-09-28T00:45:46.120Z,1008.50
2018-09-28T00:46:46.107Z,1008.48
2018-09-28T00:47:46.108Z,1008.50
2018-09-28T00:48:46.101Z,1008.45
2018-09-28T00:49:46.075Z,1008.46
2018-09-28T00:50:46.090Z,1008.43
2018-09-28T00:51:46.052Z,1008.41
2018-09-28T00:52:46.042Z,1008.35
2018-09-28T00:53:46.043Z,1008.34
2018-09-28T00:54:46.024Z,1008.39
2018-09-28T00:55:46.008Z,1008.44
2018-09-28T00:56:46.026Z,1008.40
2018-09-28T00:57:46.002Z,1008.37
2018-09-28T00:58:45.984Z,1008.33
2018-09-28T00:59:45.964Z,1008.34
2018-09-28T01:00:45.958Z,1008.35
2018-09-28T01:01:45.945Z,1008.36
2018-09-28T01:02:45.947Z,1008.36
2018-09-28T01:03:45.922Z,1008.33
2018-09-28T01:04:45.929Z,1008.31
2018-09-28T01:05:45.898Z,1008.31
2018-09-28T01:06:45.890Z,1008.36
2018-09-28T01:07:45.879Z,1008.34
2018-09-28T01:08:45.868Z,1008.30
2018-09-28T01:09:45.879Z,1008.21
2018-09-28T01:10:45.845Z,1008.26
2018-09-28T01:11:45.857Z,1008.26
2018-09-28T01:12:45.821Z,1008.27
2018-09-28T01:13:45.814Z,1008.24
2018-09-28T01:14:45.803Z,1008.19
2018-09-28T01:15:45.810Z,1008.14
2018-09-28T01:16:45.782Z,1008.10
2018-09-28T01:17:45.771Z,1008.14
2018-09-28T01:18:45.757Z,1008.17
2018-09-28T01:19:45.749Z,1008.18
2018-09-28T01:20:45.763Z,1008.11
2018-09-28T01:21:45.741Z,1008.10
2018-09-28T01:22:45.713Z,1008.14
2018-09-28T01:23:45.702Z,1008.10
2018-09-28T01:24:45.694Z,1008.16
2018-09-28T01:25:45.685Z,1008.18
2018-09-28T01:26:46.408Z,1008.18
2018-09-28T01:27:45.661Z,1008.18
2018-09-28T01:28:45.652Z,1008.15
2018-09-28T01:29:45.640Z,1008.18
2018-09-28T01:30:45.626Z,1008.18
2018-09-28T01:31:45.617Z,1008.21
2018-09-28T01:32:45.641Z,1008.17
2018-09-28T01:33:45.595Z,1008.16
2018-09-28T01:34:45.580Z,1008.16
2018-09-28T01:35:45.581Z,1008.12
2018-09-28T01:36:45.559Z,1008.15
2018-09-28T01:37:45.550Z,1008.10
2018-09-28T01:38:45.553Z,1008.13
2018-09-28T01:39:45.528Z,1008.12
2018-09-28T01:40:45.519Z,1008.11
2018-09-28T01:41:45.507Z,1008.12
2018-09-28T01:42:45.495Z,1008.16
2018-09-28T01:43:45.506Z,1008.16
2018-09-28T01:44:45.474Z,1008.12
2018-09-28T01:45:45.463Z,1008.12
2018-09-28T01:46:45.454Z,1008.14
2018-09-28T01:47:45.439Z,1008.16
2018-09-28T01:48:45.430Z,1008.22
2018-09-28T01:49:45.429Z,1008.22
2018-09-28T01:50:45.409Z,1008.22
2018-09-28T01:51:45.426Z,1008.22
2018-09-28T01:52:45.383Z,1008.24
2018-09-28T01:53:45.399Z,1008.19
2018-09-28T01:54:45.362Z,1008.25
2018-09-28T01:55:45.353Z,1008.22
2018-09-28T01:56:45.343Z,1008.23
2018-09-28T01:57:45.342Z,1008.24
2018-09-28T01:58:45.335Z,1008.23
2018-09-28T01:59:45.309Z,1008.26
2018-09-28T02:00:45.322Z,1008.26
2018-09-28T02:01:45.299Z,1008.24
2018-09-28T02:02:45.274Z,1008.25
2018-09-28T02:03:45.282Z,1008.27
2018-09-28T02:04:45.254Z,1008.31
2018-09-28T02:05:45.247Z,1008.31
2018-09-28T02:06:45.232Z,1008.29
2018-09-28T02:07:45.224Z,1008.30
2018-09-28T02:08:45.224Z,1008.36
2018-09-28T02:09:45.201Z,1008.31
2018-09-28T02:10:45.188Z,1008.33
2018-09-28T02:11:45.179Z,1008.36
2018-09-28T02:12:45.167Z,1008.36
2018-09-28T02:13:45.182Z,1008.38
2018-09-28T02:14:45.143Z,1008.38
2018-09-28T02:15:45.186Z,1008.38
2018-09-28T02:16:45.122Z,1008.41
2018-09-28T02:17:45.113Z,1008.41
2018-09-28T02:18:45.102Z,1008.36
2018-09-28T02:19:45.110Z,1008.38
2018-09-28T02:20:45.089Z,1008.40
2018-09-28T02:21:45.069Z,1008.35
2018-09-28T02:22:45.058Z,1008.37
2018-09-28T02:23:45.046Z,1008.30
2018-09-28T02:24:45.035Z,1008.36
2018-09-28T02:25:45.045Z,1008.30
2018-09-28T02:26:45.016Z,1008.30
2018-09-28T02:27:45.004Z,1008.31
2018-09-28T02:28:44.993Z,1008.24
2018-09-28T02:29:44.989Z,1008.24
2018-09-28T02:30:45.853Z,1008.24
2018-09-28T02:31:44.976Z,1008.26
2018-09-28T02:32:44.952Z,1008.24
2018-09-28T02:33:44.937Z,1008.27
2018-09-28T02:34:44.927Z,1008.28
2018-09-28T02:35:44.930Z,1008.26
2018-09-28T02:36:44.906Z,1008.29
2018-09-28T02:37:44.895Z,1008.22
2018-09-28T02:38:44.886Z,1008.24
2018-09-28T02:39:44.885Z,1008.27
2018-09-28T02:40:44.874Z,1008.22
2018-09-28T02:41:44.850Z,1008.20
2018-09-28T02:42:44.866Z,1008.21
2018-09-28T02:43:44.828Z,1008.12
2018-09-28T02:44:44.832Z,1008.17
2018-09-28T02:45:44.810Z,1008.15
2018-09-28T02:46:44.793Z,1008.17
2018-09-28T02:47:44.806Z,1008.16
2018-09-28T02:48:44.770Z,1008.14
2018-09-28T02:49:44.764Z,1008.11
2018-09-28T02:50:44.750Z,1008.10
2018-09-28T02:51:44.738Z,1008.11
2018-09-28T02:52:44.729Z,1008.12
2018-09-28T02:53:44.758Z,1008.13
2018-09-28T02:54:44.709Z,1008.19
2018-09-28T02:55:44.696Z,1008.14
2018-09-28T02:56:44.738Z,1008.13
2018-09-28T02:57:44.674Z,1008.19
2018-09-28T02:58:44.662Z,1008.12
2018-09-28T02:59:44.666Z,1008.16
2018-09-28T03:00:44.643Z,1008.13
2018-09-28T03:01:44.628Z,1008.15
2018-09-28T03:02:44.614Z,1008.13
2018-09-28T03:03:44.630Z,1008.14
2018-09-28T03:04:44.600Z,1008.24
2018-09-28T03:05:44.582Z,1008.27
2018-09-28T03:06:44.883Z,1008.27
2018-09-28T03:07:44.561Z,1008.34
2018-09-28T03:08:44.554Z,1008.43
2018-09-28T03:09:44.546Z,1008.41
2018-09-28T03:10:44.528Z,1008.45
2018-09-28T03:11:44.517Z,1008.37
2018-09-28T03:12:44.514Z,1008.35
2018-09-28T03:13:44.509Z,1008.37
2018-09-28T03:14:44.486Z,1008.39
2018-09-28T03:15:44.474Z,1008.39
2018-09-28T03:16:44.460Z,1008.37
2018-09-28T03:17:44.462Z,1008.39
2018-09-28T03:18:44.452Z,1008.43
2018-09-28T03:19:44.430Z,1008.40
2018-09-28T03:20:44.419Z,1008.41
2018-09-28T03:21:44.411Z,1008.44
2018-09-28T03:22:44.394Z,1008.47
2018-09-28T03:23:44.384Z,1008.48
2018-09-28T03:24:44.384Z,1008.50
2018-09-28T03:25:44.430Z,1008.50
2018-09-28T03:26:44.349Z,1008.45
2018-09-28T03:27:44.338Z,1008.49
2018-09-28T03:28:44.339Z,1008.51
2018-09-28T03:29:44.315Z,1008.54
2018-09-28T03:30:44.307Z,1008.49
2018-09-28T03:31:44.291Z,1008.41
2018-09-28T03:32:44.292Z,1008.47
2018-09-28T03:33:44.273Z,1008.49
2018-09-28T03:34:44.259Z,1008.52
2018-09-28T03:35:44.265Z,1008.50
2018-09-28T03:36:44.241Z,1008.44
2018-09-28T03:37:44.228Z,1008.39
2018-09-28T03:38:44.220Z,1008.43
2018-09-28T03:39:44.204Z,1008.40
2018-09-28T03:40:44.331Z,1008.44
2018-09-28T03:41:44.184Z,1008.42
2018-09-28T03:42:44.170Z,1008.46
2018-09-28T03:43:44.162Z,1008.43
2018-09-28T03:44:44.149Z,1008.48
2018-09-28T03:45:44.147Z,1008.46
2018-09-28T03:46:44.142Z,1008.51
2018-09-28T03:47:44.118Z,1008.44
2018-09-28T03:48:44.103Z,1008.47
2018-09-28T03:49:44.097Z,1008.47
2018-09-28T03:50:44.081Z,1008.53
2018-09-28T03:51:44.084Z,1008.58
2018-09-28T03:52:44.059Z,1008.58
2018-09-28T03:53:44.050Z,1008.58
2018-09-28T03:54:44.039Z,1008.56
2018-09-28T03:55:44.025Z,1008.60
2018-09-28T03:56:44.036Z,1008.61
2018-09-28T03:57:44.002Z,1008.61
2018-09-28T03:58:43.994Z,1008.59
2018-09-28T03:59:43.982Z,1008.62
2018-09-28T04:00:43.989Z,1008.60
2018-09-28T04:01:43.962Z,1008.60
2018-09-28T04:02:44.394Z,1008.56
2018-09-28T04:03:43.937Z,1008.58
2018-09-28T04:04:43.929Z,1008.59
2018-09-28T04:05:43.918Z,1008.55
2018-09-28T04:06:43.908Z,1008.60
2018-09-28T04:07:43.892Z,1008.64
2018-09-28T04:08:43.895Z,1008.59
2018-09-28T04:09:43.885Z,1008.60
2018-09-28T04:10:43.859Z,1008.61
2018-09-28T04:11:43.849Z,1008.57
2018-09-28T04:12:43.836Z,1008.55
2018-09-28T04:13:43.826Z,1008.51
2018-09-28T04:14:43.858Z,1008.46
2018-09-28T04:15:43.805Z,1008.47
2018-09-28T04:16:43.798Z,1008.50
2018-09-28T04:17:43.782Z,1008.46
2018-09-28T04:18:43.770Z,1008.48
2018-09-28T04:19:43.761Z,1008.45
2018-09-28T04:20:43.761Z,1008.47
2018-09-28T04:21:43.780Z,1008.47
2018-09-28T04:22:43.727Z,1008.50
2018-09-28T04:23:43.713Z,1008.53
2018-09-28T04:24:43.777Z,1008.51
2018-09-28T04:25:43.695Z,1008.57
2018-09-28T04:26:43.681Z,1008.58
2018-09-28T04:27:43.674Z,1008.58
2018-09-28T04:28:43.660Z,1008.61
2018-09-28T04:29:43.650Z,1008.56
2018-09-28T04:30:43.647Z,1008.59
2018-09-28T04:31:43.628Z,1008.68
2018-09-28T04:32:43.617Z,1008.68
2018-09-28T04:33:43.604Z,1008.70
2018-09-28T04:34:43.606Z,1008.70
2018-09-28T04:35:43.593Z,1008.75
2018-09-28T04:36:43.571Z,1008.70
2018-09-28T04:37:43.559Z,1008.71
2018-09-28T04:38:43.550Z,1008.72
2018-09-28T04:39:43.539Z,1008.75
2018-09-28T04:40:43.543Z,1008.79
2018-09-28T04:41:43.515Z,1008.81
2018-09-28T04:42:43.529Z,1008.78
2018-09-28T04:43:43.495Z,1008.85
2018-09-28T04:44:43.484Z,1008.83
2018-09-28T04:45:43.502Z,1008.85
2018-09-28T04:46:43.474Z,1008.89
2018-09-28T04:47:43.451Z,1008.91
2018-09-28T04:48:43.439Z,1008.86
2018-09-28T04:49:43.429Z,1008.91
2018-09-28T04:50:43.416Z,1008.89
2018-09-28T04:51:43.416Z,1008.91
2018-09-28T04:52:43.404Z,1008.95
2018-09-28T04:53:43.382Z,1009.02
2018-09-28T04:54:43.372Z,1009.04
2018-09-28T04:55:43.371Z,1009.04
2018-09-28T04:56:43.363Z,1009.05
2018-09-28T04:57:43.339Z,1009.02
2018-09-28T04:58:43.348Z,1009.05
2018-09-28T04:59:43.316Z,1009.01
2018-09-28T05:00:43.306Z,1009.05
2018-09-28T05:01:43.297Z,1009.10
2018-09-28T05:02:43.283Z,1009.08
2018-09-28T05:03:43.273Z,1009.13
2018-09-28T05:04:43.301Z,1009.12
2018-09-28T05:05:43.250Z,1009.12
2018-09-28T05:06:43.240Z,1009.12
2018-09-28T05:07:43.229Z,1009.19
2018-09-28T05:08:43.217Z,1009.18
2018-09-28T05:09:43.205Z,1009.26
2018-09-28T05:10:43.206Z,1009.25
2018-09-28T05:11:43.183Z,1009.29
2018-09-28T05:12:43.176Z,1009.31
2018-09-28T05:13:43.161Z,1009.31
2018-09-28T05:14:43.166Z,1009.34
2018-09-28T05:15:43.139Z,1009.30
2018-09-28T05:16:43.130Z,1009.31
2018-09-28T05:17:43.116Z,1009.36
2018-09-28T05:18:43.120Z,1009.39
2018-09-28T05:19:43.116Z,1009.38
2018-09-28T05:20:43.084Z,1009.41
2018-09-28T05:21:43.075Z,1009.44
2018-09-28T05:22:43.061Z,1009.46
2018-09-28T05:23:43.050Z,1009.47
2018-09-28T05:24:43.048Z,1009.49
2018-09-28T05:25:43.044Z,1009.46
2018-09-28T05:26:43.041Z,1009.45
2018-09-28T05:27:43.004Z,1009.47
2018-09-28T05:28:42.994Z,1009.49
2018-09-28T05:29:42.985Z,1009.47
2018-09-28T05:30:44.967Z,1009.48
2018-09-28T05:31:43.077Z,1009.52
2018-09-28T05:32:43.231Z,1009.52
2018-09-28T05:33:42.942Z,1009.53
2018-09-28T05:34:42.933Z,1009.48
2018-09-28T05:35:42.955Z,1009.49
2018-09-28T05:36:42.911Z,1009.49
2018-09-28T05:37:42.896Z,1009.55
2018-09-28T05:38:42.886Z,1009.52
2018-09-28T05:39:42.886Z,1009.52
2018-09-28T05:40:42.882Z,1009.48
2018-09-28T05:41:42.869Z,1009.53
2018-09-28T05:42:42.852Z,1009.57
2018-09-28T05:43:42.867Z,1009.57
2018-09-28T05:44:42.819Z,1009.62
2018-09-28T05:45:42.808Z,1009.67
2018-09-28T05:46:42.798Z,1009.66
2018-09-28T05:47:42.785Z,1009.66
2018-09-28T05:48:42.808Z,1009.67
2018-09-28T05:49:42.764Z,1009.68
2018-09-28T05:50:42.752Z,1009.68
2018-09-28T05:51:42.742Z,1009.69
2018-09-28T05:52:42.732Z,1009.73
2018-09-28T05:53:42.728Z,1009.75
2018-09-28T05:54:42.725Z,1009.80
2018-09-28T05:55:42.713Z,1009.77
2018-09-28T05:56:42.689Z,1009.82
2018-09-28T05:57:42.675Z,1009.85
2018-09-28T05:58:42.786Z,1009.88
2018-09-28T05:59:42.654Z,1009.88
2018-09-28T06:00:42.645Z,1009.88
2018-09-28T06:01:42.634Z,1009.89
2018-09-28T06:02:42.621Z,1009.92
2018-09-28T06:03:42.622Z,1009.96
2018-09-28T06:04:42.613Z,1009.98
2018-09-28T06:05:42.608Z,1010.00
2018-09-28T06:06:42.577Z,1010.01
2018-09-28T06:07:42.573Z,1010.00
2018-09-28T06:08:42.557Z,1010.09
2018-09-28T06:09:42.545Z,1010.05
2018-09-28T06:10:42.533Z,1010.08
2018-09-28T06:11:42.544Z,1010.11
2018-09-28T06:12:42.553Z,1010.15
2018-09-28T06:13:42.503Z,1010.16
2018-09-28T06:14:42.492Z,1010.17
2018-09-28T06:15:42.481Z,1010.24
2018-09-28T06:16:42.478Z,1010.22
2018-09-28T06:17:42.472Z,1010.22
2018-09-28T06:18:42.511Z,1010.24
2018-09-28T06:19:42.455Z,1010.27
2018-09-28T06:20:42.444Z,1010.23
2018-09-28T06:21:42.414Z,1010.22
2018-09-28T06:22:42.400Z,1010.19
2018-09-28T06:23:42.390Z,1010.22
2018-09-28T06:24:42.380Z,1010.22
2018-09-28T06:25:42.368Z,1010.25
2018-09-28T06:26:42.379Z,1010.26
2018-09-28T06:27:42.346Z,1010.21
2018-09-28T06:28:42.340Z,1010.22
2018-09-28T06:29:42.389Z,1010.22
2018-09-28T06:30:42.313Z,1010.22
2018-09-28T06:31:42.303Z,1010.21
2018-09-28T06:32:42.306Z,1010.28
2018-09-28T06:33:42.283Z,1010.22
2018-09-28T06:34:42.271Z,1010.25
2018-09-28T06:35:42.348Z,1010.27
2018-09-28T06:36:42.249Z,1010.32
2018-09-28T06:37:42.236Z,1010.33
2018-09-28T06:38:42.230Z,1010.34
2018-09-28T06:39:42.217Z,1010.37
2018-09-28T06:40:42.205Z,1010.37
2018-09-28T06:41:42.268Z,1010.39
2018-09-28T06:42:42.183Z,1010.42
2018-09-28T06:43:42.192Z,1010.37
2018-09-28T06:44:42.175Z,1010.42
2018-09-28T06:45:42.149Z,1010.48
2018-09-28T06:46:42.157Z,1010.43
2018-09-28T06:47:42.140Z,1010.49
2018-09-28T06:48:42.121Z,1010.50
2018-09-28T06:49:42.107Z,1010.45
2018-09-28T06:50:42.096Z,1010.48
2018-09-28T06:51:42.101Z,1010.50
2018-09-28T06:52:42.075Z,1010.53
2018-09-28T06:53:42.082Z,1010.57
2018-09-28T06:54:42.062Z,1010.61
2018-09-28T06:55:42.047Z,1010.61
2018-09-28T06:56:42.043Z,1010.61
2018-09-28T06:57:42.018Z,1010.65
2018-09-28T06:58:42.008Z,1010.66
2018-09-28T06:59:42.067Z,1010.67
2018-09-28T07:00:41.985Z,1010.68
2018-09-28T07:01:41.974Z,1010.70
2018-09-28T07:02:41.963Z,1010.67
2018-09-28T07:03:41.958Z,1010.72
2018-09-28T07:04:41.958Z,1010.78
2018-09-28T07:05:41.944Z,1010.81
2018-09-28T07:06:41.920Z,1010.84
2018-09-28T07:07:41.924Z,1010.88
2018-09-28T07:08:41.898Z,1010.88
2018-09-28T07:09:41.901Z,1010.83
2018-09-28T07:10:41.879Z,1010.87
2018-09-28T07:11:41.880Z,1010.91
2018-09-28T07:12:41.858Z,1010.92
2018-09-28T07:13:41.843Z,1010.86
2018-09-28T07:14:41.847Z,1010.92
2018-09-28T07:15:41.821Z,1010.88
2018-09-28T07:16:41.863Z,1010.90
2018-09-28T07:17:41.804Z,1010.92
2018-09-28T07:18:41.803Z,1010.94
2018-09-28T07:19:41.780Z,1010.89
2018-09-28T07:20:41.782Z,1010.99
2018-09-28T07:21:41.760Z,1010.95
2018-09-28T07:22:41.745Z,1010.99
2018-09-28T07:23:41.766Z,1011.04
2018-09-28T07:24:41.816Z,1011.04
2018-09-28T07:25:41.713Z,1011.06
2018-09-28T07:26:42.364Z,1011.01
2018-09-28T07:27:41.689Z,1011.10
2018-09-28T07:28:41.680Z,1011.08
2018-09-28T07:29:41.739Z,1011.05
2018-09-28T07:30:41.658Z,1011.12
2018-09-28T07:31:41.646Z,1011.05
2018-09-28T07:32:41.662Z,1011.09
2018-09-28T07:33:41.623Z,1011.07
2018-09-28T07:34:41.613Z,1011.09
2018-09-28T07:35:41.668Z,1011.11
2018-09-28T07:36:41.779Z,1011.07
2018-09-28T07:37:41.580Z,1011.10
2018-09-28T07:38:41.569Z,1011.10
2018-09-28T07:39:41.557Z,1011.06
2018-09-28T07:40:41.545Z,1011.11
2018-09-28T07:41:41.592Z,1011.04
2018-09-28T07:42:41.542Z,1011.08
2018-09-28T07:43:41.514Z,1011.12
2018-09-28T07:44:41.502Z,1011.13
2018-09-28T07:45:41.493Z,1011.11
2018-09-28T07:46:41.480Z,1011.23
2018-09-28T07:47:41.487Z,1011.22
2018-09-28T07:48:41.501Z,1011.22
2018-09-28T07:49:41.451Z,1011.27
2018-09-28T07:50:41.438Z,1011.28
2018-09-28T07:51:41.429Z,1011.29
2018-09-28T07:52:41.414Z,1011.21
2018-09-28T07:53:41.404Z,1011.28
2018-09-28T07:54:41.408Z,1011.26
2018-09-28T07:55:41.391Z,1011.33
2018-09-28T07:56:41.374Z,1011.16
2018-09-28T07:57:41.363Z,1011.29
2018-09-28T07:58:41.351Z,1011.24
2018-09-28T07:59:41.356Z,1011.26
2018-09-28T08:00:41.329Z,1011.15
2018-09-28T08:01:41.323Z,1011.24
2018-09-28T08:02:41.311Z,1011.23
2018-09-28T08:03:41.321Z,1011.21
2018-09-28T08:04:41.289Z,1011.28
2018-09-28T08:05:41.288Z,1011.28
2018-09-28T08:06:41.265Z,1011.31
2018-09-28T08:07:41.258Z,1011.30
2018-09-28T08:08:41.246Z,1011.36
2018-09-28T08:09:41.248Z,1011.38
2018-09-28T08:10:41.239Z,1011.41
2018-09-28T08:11:41.213Z,1011.39
2018-09-28T08:12:41.202Z,1011.38
2018-09-28T08:13:41.189Z,1011.37
2018-09-28T08:14:41.209Z,1011.40
2018-09-28T08:15:41.169Z,1011.37
2018-09-28T08:16:41.158Z,1011.38
2018-09-28T08:17:41.155Z,1011.46
2018-09-28T08:18:41.138Z,1011.54
2018-09-28T08:19:41.127Z,1011.54
2018-09-28T08:20:41.129Z,1011.50
2018-09-28T08:21:41.105Z,1011.52
2018-09-28T08:22:41.096Z,1011.49
2018-09-28T08:23:41.083Z,1011.51
2018-09-28T08:24:41.144Z,1011.61
2018-09-28T08:25:41.062Z,1011.60
2018-09-28T08:26:41.067Z,1011.55
2018-09-28T08:27:41.038Z,1011.58
2018-09-28T08:28:41.029Z,1011.60
2018-09-28T08:29:41.024Z,1011.65
2018-09-28T08:30:41.005Z,1011.75
2018-09-28T08:31:41.007Z,1011.66
2018-09-28T08:32:40.985Z,1011.67
2018-09-28T08:33:40.976Z,1011.79
2018-09-28T08:34:40.962Z,1011.77
2018-09-28T08:35:40.992Z,1011.70
2018-09-28T08:36:40.996Z,1011.83
2018-09-28T08:37:40.929Z,1011.86
2018-09-28T08:38:40.918Z,1011.89
2018-09-28T08:39:40.910Z,1011.85
2018-09-28T08:40:40.899Z,1011.92
2018-09-28T08:41:40.945Z,1011.91
2018-09-28T08:42:40.891Z,1011.93
2018-09-28T08:43:40.978Z,1011.89
2018-09-28T08:44:40.856Z,1011.92
2018-09-28T08:45:40.843Z,1011.96
2018-09-28T08:46:40.861Z,1011.98
2018-09-28T08:47:40.824Z,1012.01
2018-09-28T08:48:40.831Z,1012.09
2018-09-28T08:49:40.801Z,1012.04
2018-09-28T08:50:40.789Z,1012.10
2018-09-28T08:51:40.780Z,1012.11
2018-09-28T08:52:40.767Z,1012.11
2018-09-28T08:53:40.756Z,1012.10
2018-09-28T08:54:40.760Z,1012.13
2018-09-28T08:55:40.736Z,1012.19
2018-09-28T08:56:40.726Z,1012.17
2018-09-28T08:57:40.716Z,1012.20
2018-09-28T08:58:40.704Z,1012.23
2018-09-28T08:59:40.715Z,1012.21
2018-09-28T09:00:40.682Z,1012.26
2018-09-28T09:01:40.672Z,1012.27
2018-09-28T09:02:40.663Z,1012.24
2018-09-28T09:03:40.649Z,1012.30
2018-09-28T09:04:40.638Z,1012.29
2018-09-28T09:05:40.641Z,1012.30
2018-09-28T09:06:40.618Z,1012.30
2018-09-28T09:07:40.607Z,1012.30
2018-09-28T09:08:40.597Z,1012.30
2018-09-28T09:09:40.585Z,1012.37
2018-09-28T09:10:40.591Z,1012.36
2018-09-28T09:11:40.564Z,1012.41
2018-09-28T09:12:40.558Z,1012.37
2018-09-28T09:13:40.539Z,1012.47
2018-09-28T09:14:40.535Z,1012.43
2018-09-28T09:15:40.516Z,1012.45
2018-09-28T09:16:40.519Z,1012.45
2018-09-28T09:17:40.497Z,1012.45
2018-09-28T09:18:40.485Z,1012.40
2018-09-28T09:19:40.471Z,1012.50
2018-09-28T09:20:40.478Z,1012.47
2018-09-28T09:21:40.450Z,1012.56
2018-09-28T09:22:40.454Z,1012.58
2018-09-28T09:23:40.426Z,1012.63
2018-09-28T09:24:40.417Z,1012.61
2018-09-28T09:25:40.403Z,1012.64
2018-09-28T09:26:40.393Z,1012.64
2018-09-28T09:27:40.399Z,1012.64
2018-09-28T09:28:40.371Z,1012.65
2018-09-28T09:29:40.362Z,1012.62
2018-09-28T09:30:40.349Z,1012.63
2018-09-28T09:31:40.352Z,1012.64
2018-09-28T09:32:40.324Z,1012.66
2018-09-28T09:33:40.332Z,1012.68
2018-09-28T09:34:40.302Z,1012.66
2018-09-28T09:35:40.291Z,1012.68
2018-09-28T09:36:40.545Z,1012.66
2018-09-28T09:37:40.268Z,1012.68
2018-09-28T09:38:40.256Z,1012.65
2018-09-28T09:39:40.265Z,1012.73
2018-09-28T09:40:40.235Z,1012.67
2018-09-28T09:41:40.222Z,1012.71
2018-09-28T09:42:40.273Z,1012.75
2018-09-28T09:43:40.198Z,1012.72
2018-09-28T09:44:40.188Z,1012.73
2018-09-28T09:45:40.192Z,1012.71
2018-09-28T09:46:40.166Z,1012.69
2018-09-28T09:47:40.154Z,1012.74
2018-09-28T09:48:40.159Z,1012.67
2018-09-28T09:49:40.132Z,1012.70
2018-09-28T09:50:40.146Z,1012.77
2018-09-28T09:51:40.111Z,1012.75
2018-09-28T09:52:40.098Z,1012.69
2018-09-28T09:53:40.087Z,1012.72
2018-09-28T09:54:40.076Z,1012.68
2018-09-28T09:55:40.062Z,1012.73
2018-09-28T09:56:40.104Z,1012.79
2018-09-28T09:57:40.075Z,1012.81
2018-09-28T09:58:40.029Z,1012.83
2018-09-28T09:59:40.017Z,1012.85
2018-09-28T10:00:40.010Z,1012.84
2018-09-28T10:01:39.996Z,1012.88
2018-09-28T10:02:40.000Z,1012.86
2018-09-28T10:03:39.974Z,1012.91
2018-09-28T10:04:39.963Z,1012.88
2018-09-28T10:05:39.950Z,1012.82
2018-09-28T10:06:39.944Z,1012.87
2018-09-28T10:07:39.945Z,1012.88
2018-09-28T10:08:39.918Z,1012.91
2018-09-28T10:09:39.969Z,1012.91
2018-09-28T10:10:39.897Z,1012.96
2018-09-28T10:11:39.885Z,1012.96
2018-09-28T10:12:39.905Z,1012.91
2018-09-28T10:13:39.864Z,1012.85
2018-09-28T10:14:39.850Z,1012.89
2018-09-28T10:15:39.839Z,1012.83
2018-09-28T10:16:39.830Z,1012.84
2018-09-28T10:17:39.821Z,1012.89
2018-09-28T10:18:39.822Z,1012.87
2018-09-28T10:19:39.856Z,1012.92
2018-09-28T10:20:39.785Z,1012.87
2018-09-28T10:21:39.774Z,1012.89
2018-09-28T10:22:39.766Z,1012.84
2018-09-28T10:23:39.775Z,1012.89
2018-09-28T10:24:39.756Z,1012.86
2018-09-28T10:25:39.762Z,1012.90
2018-09-28T10:26:39.719Z,1012.90
2018-09-28T10:27:39.719Z,1012.89
2018-09-28T10:28:39.773Z,1012.99
2018-09-28T10:29:39.709Z,1013.01
2018-09-28T10:30:39.676Z,1012.92
2018-09-28T10:31:39.666Z,1012.96
2018-09-28T10:32:39.656Z,1012.99
2018-09-28T10:33:39.678Z,1013.02
2018-09-28T10:34:39.694Z,1012.98
2018-09-28T10:35:39.660Z,1012.95
2018-09-28T10:36:39.632Z,1012.94
2018-09-28T10:37:39.602Z,1012.99
2018-09-28T10:38:39.589Z,1013.01
2018-09-28T10:39:39.654Z,1012.96
2018-09-28T10:40:39.747Z,1012.96
2018-09-28T10:41:39.557Z,1012.97
2018-09-28T10:42:39.545Z,1013.00
2018-09-28T10:43:39.534Z,1013.03
2018-09-28T10:44:39.539Z,1013.03
2018-09-28T10:45:39.527Z,1013.06
2018-09-28T10:46:39.578Z,1013.00
2018-09-28T10:47:39.490Z,1013.02
2018-09-28T10:48:39.480Z,1013.10
2018-09-28T10:49:39.487Z,1012.99
2018-09-28T10:50:39.459Z,1013.05
2018-09-28T10:51:39.526Z,1012.99
2018-09-28T10:52:39.595Z,1012.96
2018-09-28T10:53:39.425Z,1012.95
2018-09-28T10:54:39.414Z,1013.01
2018-09-28T10:55:39.415Z,1012.97
2018-09-28T10:56:39.392Z,1012.95
2018-09-28T10:57:39.382Z,1012.97
2018-09-28T10:58:39.399Z,1012.94
2018-09-28T10:59:39.378Z,1012.92
2018-09-28T11:00:39.349Z,1013.00
2018-09-28T11:01:39.338Z,1012.93
2018-09-28T11:02:39.325Z,1012.90
2018-09-28T11:03:39.364Z,1012.91
2018-09-28T11:04:39.333Z,1012.90
2018-09-28T11:05:39.308Z,1012.93
2018-09-28T11:06:39.284Z,1012.95
2018-09-28T11:07:39.272Z,1012.93
2018-09-28T11:08:39.264Z,1012.89
2018-09-28T11:09:39.270Z,1012.94
2018-09-28T11:10:39.349Z,1012.91
2018-09-28T11:11:39.228Z,1012.95
2018-09-28T11:12:39.218Z,1013.00
2018-09-28T11:13:39.205Z,1012.91
2018-09-28T11:14:39.193Z,1012.95
2018-09-28T11:15:39.240Z,1012.89
2018-09-28T11:16:39.186Z,1012.82
2018-09-28T11:17:39.162Z,1012.78
2018-09-28T11:18:39.152Z,1012.81
2018-09-28T11:19:39.141Z,1012.92
2018-09-28T11:20:39.128Z,1012.99
2018-09-28T11:21:39.257Z,1013.04
2018-09-28T11:22:39.108Z,1012.83
2018-09-28T11:23:39.099Z,1012.82
2018-09-28T11:24:39.086Z,1012.80
2018-09-28T11:25:39.078Z,1012.77
2018-09-28T11:26:39.065Z,1012.82
2018-09-28T11:27:39.122Z,1012.71
2018-09-28T11:28:39.043Z,1012.80
2018-09-28T11:29:39.031Z,1012.81
2018-09-28T11:30:39.022Z,1012.80
2018-09-28T11:31:39.012Z,1012.81
2018-09-28T11:32:39.018Z,1012.81
2018-09-28T11:33:39.007Z,1012.85
2018-09-28T11:34:38.979Z,1012.82
2018-09-28T11:35:39.003Z,1012.74
2018-09-28T11:36:38.958Z,1012.73
2018-09-28T11:37:38.976Z,1012.74
2018-09-28T11:38:38.953Z,1012.74
2018-09-28T11:39:38.984Z,1012.75
2018-09-28T11:40:38.919Z,1012.76
2018-09-28T11:41:38.906Z,1012.77
2018-09-28T11:42:38.892Z,1012.79
2018-09-28T11:43:38.897Z,1012.90
2018-09-28T11:44:38.875Z,1012.89
2018-09-28T11:45:38.918Z,1012.90
2018-09-28T11:46:38.847Z,1012.88
2018-09-28T11:47:38.837Z,1012.90
2018-09-28T11:48:38.846Z,1012.83
2018-09-28T11:49:38.818Z,1012.85
2018-09-28T11:50:38.806Z,1012.89
2018-09-28T11:51:38.805Z,1012.84
2018-09-28T11:52:38.784Z,1012.88
2018-09-28T11:53:38.779Z,1012.91
2018-09-28T11:54:38.776Z,1012.94
2018-09-28T11:55:38.752Z,1012.94
2018-09-28T11:56:38.741Z,1012.97
2018-09-28T11:57:38.805Z,1012.89
2018-09-28T11:58:38.720Z,1012.81
2018-09-28T11:59:38.721Z,1012.81
2018-09-28T12:00:38.697Z,1012.87
2018-09-28T12:01:38.685Z,1012.89
2018-09-28T12:02:38.694Z,1012.80
2018-09-28T12:03:38.666Z,1012.89
2018-09-28T12:04:38.663Z,1012.87
2018-09-28T12:05:38.662Z,1012.96